Terminal Aerodrome Forecast
Issued by NWS

Home | Current Version | Previous Version | Text Only | Print | Product List | Glossary On
Versions: 1 2 3 4 5 6 7 8 9 10 11 12
000
FTUS46 KSGX 302300
TAFCRQ
TAF
KCRQ 302340Z 3100/3124 VRB05KT P6SM VCSH SCT060 OVC090
     FM311000 VRB03KT P6SM VCSH BKN025 OVC080
     FM311900 27007KT P6SM SCT025 BKN080=

USA.gov is the U.S. government's official web portal to all federal, state and local government web resources and services.